Time;durP1;ratioP1;P1;durP2;ratioP2;P2;SDS_P1;SDS_P2;PMS_P1;PMS_P2;Temp;Humidity;BMP_temperature;BMP_pressure;BME280_temperature;BME280_humidity;BME280_pressure;Samples;Min_cycle;Max_cycle;Signal;HPM_P1;HPM_P2
2022/04/14 00:02:25;;;;;;;3.23;2.97;;;;;;;12.72;42.61;100000.69;5054749;28;20189;-63
2022/04/14 00:04:53;;;;;;;3.97;3.13;;;;;;;12.75;42.86;99997.63;5054320;28;20251;-64
2022/04/14 00:07:20;;;;;;;3.33;3.07;;;;;;;12.79;43.01;99993.56;5054583;28;20193;-63
2022/04/14 00:09:47;;;;;;;3.53;3.00;;;;;;;12.75;43.38;99988.81;5054855;28;20193;-64
2022/04/14 00:12:14;;;;;;;4.10;3.90;;;;;;;12.66;45.00;99988.13;5054114;28;20224;-64
2022/04/14 00:14:41;;;;;;;7.47;3.80;;;;;;;12.46;45.63;99978.41;5054702;28;20224;-64
2022/04/14 00:17:07;;;;;;;3.83;3.60;;;;;;;12.32;46.29;99992.63;5036693;28;20200;-64
2022/04/14 00:19:34;;;;;;;4.67;4.10;;;;;;;12.15;47.67;100000.13;5054364;28;20196;-64
2022/04/14 00:22:02;;;;;;;7.77;4.30;;;;;;;11.92;48.33;99998.69;5054000;28;20197;-64
2022/04/14 00:24:29;;;;;;;3.80;3.40;;;;;;;11.81;49.08;100002.72;5054161;28;20199;-63
2022/04/14 00:26:55;;;;;;;5.70;4.60;;;;;;;11.70;48.86;100000.56;5054195;28;20195;-65
2022/04/14 00:29:22;;;;;;;3.37;3.17;;;;;;;11.59;49.81;100006.34;5054696;28;20271;-64
2022/04/14 00:31:49;;;;;;;5.47;3.93;;;;;;;11.42;50.49;100001.44;5054054;28;20202;-64
2022/04/14 00:34:16;;;;;;;4.90;3.97;;;;;;;11.23;51.95;100013.53;5054656;28;20201;-63
2022/04/14 00:36:43;;;;;;;4.80;4.07;;;;;;;11.09;51.98;100006.41;5053717;28;20195;-63
2022/04/14 00:39:11;;;;;;;4.83;4.50;;;;;;;10.94;52.66;100013.56;5053648;28;20741;-63
2022/04/14 00:41:37;;;;;;;6.13;4.83;;;;;;;10.84;53.17;100005.09;5053629;28;20245;-63
2022/04/14 00:44:05;;;;;;;7.77;5.50;;;;;;;10.79;53.78;100016.25;5036155;28;20195;-64
2022/04/14 00:46:32;;;;;;;6.00;5.47;;;;;;;10.70;54.23;100012.06;5053523;28;20635;-64
2022/04/14 00:48:59;;;;;;;6.93;5.03;;;;;;;10.55;54.98;100000.59;5053889;28;20264;-64
2022/04/14 00:51:26;;;;;;;5.23;4.80;;;;;;;10.55;55.06;100013.06;5054500;28;20194;-64
2022/04/14 00:53:53;;;;;;;6.20;5.80;;;;;;;10.53;57.32;100004.44;5053298;28;20366;-64
2022/04/14 00:56:22;;;;;;;6.07;5.60;;;;;;;10.52;57.53;100008.94;5052248;28;20247;-63
2022/04/14 00:58:49;;;;;;;5.67;5.17;;;;;;;10.45;58.27;100001.88;5052973;28;20198;-64
2022/04/14 01:01:16;;;;;;;5.97;4.83;;;;;;;10.43;57.79;100009.22;5053259;28;20194;-63
2022/04/14 01:03:46;;;;;;;7.83;5.57;;;;;;;10.39;58.47;100007.94;5035431;28;20745;-63
2022/04/14 01:06:15;;;;;;;7.00;5.73;;;;;;;10.22;58.35;100011.75;5053471;28;20190;-63
2022/04/14 01:09:16;;;;;;;6.63;6.03;;;;;;;9.97;59.00;100008.47;5052707;28;20281;-64
2022/04/14 01:11:31;;;;;;;7.87;6.67;;;;;;;9.78;60.15;100008.97;5053107;28;20196;-64
2022/04/14 01:13:58;;;;;;;7.23;6.57;;;;;;;9.72;60.85;100020.28;5053459;28;20216;-63
2022/04/14 01:16:25;;;;;;;12.70;7.33;;;;;;;9.65;62.17;100023.84;5052402;28;20720;-65
2022/04/14 01:18:52;;;;;;;9.80;6.80;;;;;;;9.63;62.04;100020.53;5053047;28;20188;-63
2022/04/14 01:21:21;;;;;;;11.77;7.23;;;;;;;9.53;62.38;100017.28;5052997;28;20200;-64
2022/04/14 01:23:50;;;;;;;8.70;7.63;;;;;;;9.37;63.32;100014.75;5053082;28;20197;-63
2022/04/14 01:26:17;;;;;;;9.97;8.10;;;;;;;9.29;64.25;100018.28;5052117;28;20203;-63
2022/04/14 01:28:44;;;;;;;8.40;7.57;;;;;;;9.29;63.62;100028.03;5053383;28;20259;-63
2022/04/14 01:31:10;;;;;;;9.17;8.20;;;;;;;9.25;65.12;100018.78;5052392;28;20192;-63
2022/04/14 01:33:37;;;;;;;11.03;7.27;;;;;;;9.15;64.74;100026.97;5052871;28;20282;-63
2022/04/14 01:36:05;;;;;;;9.10;8.20;;;;;;;9.13;65.29;100025.47;5052267;28;20222;-64
2022/04/14 01:38:32;;;;;;;10.77;8.57;;;;;;;8.99;65.45;100016.44;5052138;28;20641;-63
2022/04/14 01:41:00;;;;;;;12.27;8.23;;;;;;;8.84;66.21;100035.88;5053254;28;20250;-63
2022/04/14 01:43:27;;;;;;;9.20;7.80;;;;;;;8.73;67.26;100026.50;5052766;28;20262;-63
2022/04/14 01:45:53;;;;;;;8.40;7.53;;;;;;;8.61;68.28;100040.25;5052791;28;20259;-63
2022/04/14 01:48:20;;;;;;;8.57;7.80;;;;;;;8.58;68.05;100030.03;5052352;28;20250;-64
2022/04/14 01:50:47;;;;;;;12.60;7.97;;;;;;;8.62;68.43;100041.94;5052705;28;20188;-65
2022/04/14 01:53:13;;;;;;;10.33;8.10;;;;;;;8.72;69.05;100039.91;5052228;28;20270;-63
2022/04/14 01:55:40;;;;;;;9.73;8.03;;;;;;;8.68;68.13;100041.25;5052555;28;20200;-63
2022/04/14 01:58:08;;;;;;;8.10;7.53;;;;;;;8.56;68.22;100039.94;5052371;28;20204;-63
2022/04/14 02:00:35;;;;;;;8.63;7.80;;;;;;;8.51;68.41;100040.47;5034769;28;20193;-63
2022/04/14 02:03:02;;;;;;;9.57;7.67;;;;;;;8.54;68.12;100042.75;5034417;28;20553;-64
2022/04/14 02:05:28;;;;;;;9.97;7.37;;;;;;;8.54;67.78;100044.59;5052467;28;20192;-63
2022/04/14 02:07:55;;;;;;;11.37;6.90;;;;;;;8.49;68.15;100054.88;5034392;28;20285;-66
2022/04/14 02:10:22;;;;;;;10.03;7.63;;;;;;;8.36;68.48;100049.25;5052224;28;20196;-63
2022/04/14 02:12:49;;;;;;;8.10;7.50;;;;;;;8.37;68.60;100056.22;5051838;28;20794;-63
2022/04/14 02:15:18;;;;;;;12.27;7.50;;;;;;;8.28;67.68;100058.06;5034532;28;20692;-63
2022/04/14 02:17:45;;;;;;;10.73;7.73;;;;;;;8.15;68.22;100057.72;5052325;28;20208;-63
2022/04/14 02:20:12;;;;;;;11.13;7.77;;;;;;;8.03;69.17;100056.38;5051532;28;20201;-63
2022/04/14 02:22:40;;;;;;;10.70;8.30;;;;;;;7.77;70.17;100058.38;5052179;28;20626;-63
2022/04/14 02:25:08;;;;;;;13.47;8.03;;;;;;;7.76;70.71;100058.53;5051787;28;20735;-63
2022/04/14 02:27:34;;;;;;;8.77;7.97;;;;;;;7.68;70.91;100054.06;5051867;28;20720;-64
2022/04/14 02:30:01;;;;;;;9.43;8.00;;;;;;;7.63;70.92;100056.38;5051936;28;20664;-63
2022/04/14 02:32:29;;;;;;;8.70;7.70;;;;;;;7.55;71.56;100052.91;5051614;28;20197;-64
2022/04/14 02:34:56;;;;;;;9.27;8.37;;;;;;;7.54;72.21;100067.09;5052009;28;20250;-63
2022/04/14 02:37:23;;;;;;;10.20;8.07;;;;;;;7.69;71.61;100062.81;5052583;28;20192;-63
2022/04/14 02:39:49;;;;;;;9.77;7.70;;;;;;;7.79;71.34;100066.13;5051597;28;20669;-63
2022/04/14 02:42:16;;;;;;;11.47;7.37;;;;;;;7.86;71.23;100064.47;5051913;28;20200;-63
2022/04/14 02:44:43;;;;;;;9.23;7.23;;;;;;;7.87;70.70;100058.19;5051639;28;20230;-63
2022/04/14 02:47:09;;;;;;;22.97;8.80;;;;;;;7.98;70.29;100065.81;5052912;28;20200;-63
2022/04/14 02:49:38;;;;;;;13.10;7.70;;;;;;;8.04;69.85;100058.03;5051940;28;20250;-63
2022/04/14 02:52:05;;;;;;;7.93;7.23;;;;;;;8.06;69.70;100049.94;5052074;28;20254;-63
2022/04/14 02:54:37;;;;;;;8.47;7.67;;;;;;;8.06;69.54;100055.22;5051450;28;20622;-63
2022/04/14 02:57:04;;;;;;;11.10;7.70;;;;;;;8.06;69.33;100057.88;5051500;28;20185;-63
2022/04/14 02:59:31;;;;;;;12.10;7.53;;;;;;;8.07;69.07;100049.78;5051798;28;20196;-63
2022/04/14 03:01:58;;;;;;;7.83;7.03;;;;;;;8.13;69.20;100061.50;5051351;28;20618;-63
2022/04/14 03:04:24;;;;;;;10.97;7.83;;;;;;;8.15;69.69;100051.56;5052036;28;20196;-64
2022/04/14 03:06:53;;;;;;;11.07;7.63;;;;;;;8.12;69.87;100049.25;5051314;28;20226;-64
2022/04/14 03:09:20;;;;;;;10.57;7.53;;;;;;;8.12;69.44;100046.59;5051745;28;20196;-63
2022/04/14 03:11:46;;;;;;;9.87;8.03;;;;;;;8.12;69.41;100051.91;5052326;28;20196;-63
2022/04/14 03:14:13;;;;;;;14.30;8.00;;;;;;;8.09;69.81;100060.19;5051174;28;20694;-63
2022/04/14 03:16:40;;;;;;;9.93;7.70;;;;;;;7.99;69.33;100063.00;5051705;28;20237;-63
2022/04/14 03:19:06;;;;;;;9.77;8.83;;;;;;;7.92;69.11;100061.19;5051064;28;20197;-63
2022/04/14 03:21:34;;;;;;;12.50;8.30;;;;;;;7.71;69.42;100064.31;5051313;28;20188;-63
2022/04/14 03:24:02;;;;;;;9.33;8.43;;;;;;;7.57;70.43;100067.59;5051481;28;20662;-63
2022/04/14 03:26:28;;;;;;;11.67;8.50;;;;;;;7.46;71.53;100070.53;5033528;28;20196;-63
2022/04/14 03:28:55;;;;;;;12.40;8.63;;;;;;;7.37;71.68;100070.69;5051431;28;20196;-62
2022/04/14 03:31:22;;;;;;;9.57;8.60;;;;;;;7.22;73.07;100067.84;5052314;28;20258;-63
2022/04/14 03:33:48;;;;;;;9.77;8.87;;;;;;;7.04;73.65;100079.50;5055090;28;20235;-63
2022/04/14 03:36:15;;;;;;;15.07;9.53;;;;;;;7.00;74.36;100078.16;5054959;28;20188;-62
2022/04/14 03:38:42;;;;;;;11.37;9.30;;;;;;;6.94;74.42;100076.16;5037858;28;20196;-62
2022/04/14 03:41:10;;;;;;;9.53;8.53;;;;;;;6.97;74.27;100079.31;5054929;28;20208;-63
2022/04/14 03:43:37;;;;;;;18.90;9.50;;;;;;;6.93;74.57;100082.41;5055815;28;20246;-62
2022/04/14 03:46:04;;;;;;;22.63;10.77;;;;;;;6.97;75.45;100089.03;5055027;28;20197;-62
2022/04/14 03:48:31;;;;;;;11.07;9.93;;;;;;;7.06;75.01;100088.91;5055241;28;20621;-62
2022/04/14 03:50:58;;;;;;;23.67;14.27;;;;;;;7.03;74.09;100083.13;5054869;28;20258;-62
2022/04/14 03:53:25;;;;;;;21.37;13.90;;;;;;;7.14;74.17;100096.06;5036840;28;20219;-62
2022/04/14 03:55:52;;;;;;;16.60;10.37;;;;;;;7.27;73.66;100101.72;5054859;28;20634;-62
2022/04/14 03:58:20;;;;;;;16.10;10.83;;;;;;;7.41;73.32;100098.44;5055031;28;20199;-62
2022/04/14 04:00:46;;;;;;;18.10;10.10;;;;;;;7.49;73.63;100096.66;5054786;28;20199;-63
2022/04/14 04:03:14;;;;;;;21.07;11.20;;;;;;;7.72;72.78;100102.97;5054676;28;20204;-63
2022/04/14 04:05:41;;;;;;;13.10;9.47;;;;;;;7.99;70.82;100107.97;5054899;28;20192;-62
2022/04/14 04:08:08;;;;;;;13.57;9.03;;;;;;;8.20;68.73;100116.25;5054439;28;20593;-63
2022/04/14 04:10:35;;;;;;;14.57;9.37;;;;;;;8.57;68.25;100116.56;5054511;28;20258;-63
2022/04/14 04:13:03;;;;;;;21.43;9.80;;;;;;;9.16;65.71;100132.00;5054083;28;20204;-62
2022/04/14 04:15:31;;;;;;;32.63;9.97;;;;;;;9.73;63.37;100127.22;5053660;28;20288;-62
2022/04/14 04:17:58;;;;;;;18.37;11.07;;;;;;;10.25;61.90;100133.53;5054106;28;20283;-63
2022/04/14 04:20:25;;;;;;;27.73;11.57;;;;;;;10.74;59.94;100143.53;5054015;28;20193;-64
2022/04/14 04:22:52;;;;;;;14.40;11.20;;;;;;;11.07;57.77;100141.38;5054476;28;20200;-62
2022/04/14 04:25:18;;;;;;;13.53;10.60;;;;;;;11.32;58.37;100148.06;5054265;28;20267;-63
2022/04/14 04:27:45;;;;;;;12.30;9.03;;;;;;;11.81;56.14;100157.09;5054116;28;20202;-62
2022/04/14 04:30:12;;;;;;;9.73;8.77;;;;;;;12.13;52.88;100164.56;5053758;28;20667;-63
2022/04/14 04:32:40;;;;;;;14.83;9.73;;;;;;;12.58;52.55;100166.84;5036222;28;20213;-63
2022/04/14 04:35:08;;;;;;;14.87;8.80;;;;;;;13.01;49.07;100160.44;5053983;28;20242;-64
2022/04/14 04:37:36;;;;;;;19.23;8.53;;;;;;;12.91;48.84;100170.59;5053509;28;20253;-65
2022/04/14 04:40:03;;;;;;;14.97;7.80;;;;;;;13.21;51.27;100155.22;5053441;28;20633;-66
2022/04/14 04:42:30;;;;;;;15.13;9.90;;;;;;;13.41;50.64;100158.84;5053760;28;20193;-65
2022/04/14 04:44:57;;;;;;;25.47;11.00;;;;;;;13.32;47.46;100176.84;5053053;28;20683;-65
2022/04/14 04:47:23;;;;;;;16.73;10.47;;;;;;;13.21;48.48;100172.06;5053803;28;20199;-64
2022/04/14 04:49:52;;;;;;;27.17;10.83;;;;;;;13.37;51.74;100174.44;5053826;28;20658;-64
2022/04/14 04:52:19;;;;;;;20.30;10.50;;;;;;;14.50;48.40;100173.56;5053476;28;20287;-66
2022/04/14 04:54:45;;;;;;;18.17;10.00;;;;;;;15.53;44.03;100182.50;5053585;28;20220;-63
2022/04/14 04:57:12;;;;;;;20.50;10.87;;;;;;;16.64;39.48;100181.94;5053595;28;20251;-64
2022/04/14 04:59:39;;;;;;;16.67;10.27;;;;;;;16.77;37.48;100175.66;5049847;28;20201;-64
2022/04/14 05:02:06;;;;;;;25.17;11.20;;;;;;;16.62;38.44;100167.91;5033030;28;20552;-67
2022/04/14 05:04:33;;;;;;;17.73;9.83;;;;;;;16.26;38.70;100164.25;5033568;28;20259;-63
2022/04/14 05:07:01;;;;;;;18.27;10.43;;;;;;;16.07;39.31;100168.69;5033225;28;20201;-63
2022/04/14 05:09:28;;;;;;;18.03;9.40;;;;;;;16.24;38.88;100171.66;5033154;28;20201;-64
2022/04/14 05:11:56;;;;;;;14.07;9.60;;;;;;;16.11;38.82;100166.38;5033438;28;20194;-67
2022/04/14 05:14:22;;;;;;;11.37;8.33;;;;;;;16.53;38.95;100173.78;5032918;28;20241;-67
2022/04/14 05:16:49;;;;;;;14.07;7.77;;;;;;;16.76;39.46;100163.28;5033302;28;20248;-68
2022/04/14 05:19:16;;;;;;;27.93;9.27;;;;;;;17.07;37.29;100172.06;5033300;28;20251;-64
2022/04/14 05:21:43;;;;;;;21.60;9.67;;;;;;;17.23;36.93;100178.75;5033102;28;20208;-65
2022/04/14 05:24:11;;;;;;;12.50;8.70;;;;;;;16.98;40.40;100162.66;5033747;28;20197;-62
2022/04/14 05:26:38;;;;;;;15.17;9.67;;;;;;;17.78;36.56;100169.66;5032828;28;20654;-62
2022/04/14 05:29:04;;;;;;;10.83;9.73;;;;;;;17.71;35.53;100161.69;5032765;28;20659;-64
2022/04/14 05:31:31;;;;;;;10.87;8.13;;;;;;;18.58;35.33;100167.28;5032940;28;20195;-63
2022/04/14 05:33:58;;;;;;;18.53;10.33;;;;;;;18.72;33.74;100166.06;5038843;28;20275;-63
2022/04/14 05:36:24;;;;;;;12.40;9.67;;;;;;;18.62;34.29;100167.66;5047869;28;20252;-62
2022/04/14 05:38:51;;;;;;;18.10;9.47;;;;;;;19.12;34.01;100172.38;5032557;28;20681;-62
2022/04/14 05:41:19;;;;;;;14.23;9.93;;;;;;;19.42;32.13;100164.19;5042668;28;20255;-62
2022/04/14 05:43:46;;;;;;;36.13;10.43;;;;;;;19.14;32.43;100166.75;5052281;28;20555;-63
2022/04/14 05:46:12;;;;;;;17.63;9.93;;;;;;;19.38;32.87;100168.41;5052422;28;20278;-63
2022/04/14 05:48:39;;;;;;;32.90;11.47;;;;;;;19.22;32.84;100171.78;5052239;28;20255;-61
2022/04/14 05:51:06;;;;;;;37.27;11.73;;;;;;;19.52;33.01;100169.81;5032697;28;20198;-62
2022/04/14 05:53:32;;;;;;;30.02;11.63;;;;;;;19.20;33.50;100165.81;5046298;28;20528;-63
2022/04/14 05:55:59;;;;;;;39.53;22.00;;;;;;;19.26;35.24;100162.22;5051158;28;20224;-64
2022/04/14 05:58:27;;;;;;;18.07;8.03;;;;;;;19.57;33.12;100167.22;5052107;28;20196;-64
2022/04/14 06:00:54;;;;;;;22.73;8.13;;;;;;;19.62;32.80;100168.16;5052665;28;20196;-65
2022/04/14 06:03:21;;;;;;;8.13;7.33;;;;;;;19.68;32.33;100169.88;5052122;28;20254;-65
2022/04/14 06:05:47;;;;;;;7.67;6.87;;;;;;;19.50;32.77;100177.28;5052095;28;20209;-65
2022/04/14 06:08:14;;;;;;;7.23;6.03;;;;;;;19.41;31.84;100184.09;5051534;28;20227;-66
2022/04/14 06:10:41;;;;;;;8.00;5.87;;;;;;;19.56;32.16;100176.38;5049931;28;20228;-66
2022/04/14 06:13:08;;;;;;;8.43;5.30;;;;;;;20.16;31.58;100174.91;5051948;28;20627;-65
2022/04/14 06:15:36;;;;;;;12.57;5.87;;;;;;;20.32;30.96;100179.50;5051896;28;20241;-65
2022/04/14 06:18:03;;;;;;;6.23;5.63;;;;;;;20.72;29.71;100188.34;5051257;28;20287;-65
2022/04/14 06:20:31;;;;;;;6.10;5.50;;;;;;;20.56;30.74;100183.72;5051612;28;20192;-65
2022/04/14 06:22:58;;;;;;;6.27;5.00;;;;;;;20.92;29.88;100183.28;5051440;28;20192;-65
2022/04/14 06:25:26;;;;;;;7.90;5.67;;;;;;;21.12;29.78;100182.78;5049699;28;20733;-65
2022/04/14 06:27:55;;;;;;;6.97;6.27;;;;;;;21.05;30.30;100182.13;5049395;28;20200;-65
2022/04/14 06:30:22;;;;;;;9.43;5.93;;;;;;;21.01;30.19;100192.63;5049762;28;20193;-66
2022/04/14 06:33:02;;;;;;;16.30;9.53;;;;;;;20.38;30.75;100192.84;5049848;28;20286;-66
2022/04/14 06:35:29;;;;;;;14.17;6.50;;;;;;;20.34;31.13;100189.00;5049108;28;20272;-66
2022/04/14 06:37:56;;;;;;;8.43;6.43;;;;;;;20.17;31.12;100196.25;5049540;28;20257;-66
2022/04/14 06:40:23;;;;;;;6.53;5.80;;;;;;;20.38;31.59;100189.34;5050676;28;20622;-66
2022/04/14 06:42:50;;;;;;;8.33;6.27;;;;;;;20.58;31.30;100194.28;5052529;28;20191;-66
2022/04/14 06:45:17;;;;;;;13.80;5.40;;;;;;;20.63;30.69;100197.06;5051643;28;20196;-64
2022/04/14 06:47:44;;;;;;;9.03;5.73;;;;;;;20.98;30.48;100198.50;5051632;28;20254;-66
2022/04/14 06:50:12;;;;;;;14.47;6.63;;;;;;;20.99;30.19;100200.13;5051872;28;20192;-66
2022/04/14 06:52:39;;;;;;;11.20;5.63;;;;;;;21.23;29.79;100201.59;5051607;28;20270;-66
2022/04/14 06:55:08;;;;;;;7.67;5.70;;;;;;;21.45;29.66;100210.59;5051953;28;20220;-64
2022/04/14 06:57:35;;;;;;;8.57;5.90;;;;;;;21.54;29.67;100205.56;5052513;28;20275;-64
2022/04/14 07:00:01;;;;;;;12.70;6.50;;;;;;;21.78;29.59;100205.13;5051455;28;20188;-65
2022/04/14 07:02:31;;;;;;;16.30;6.53;;;;;;;21.75;29.80;100205.59;5051615;28;20231;-64
2022/04/14 07:04:58;;;;;;;9.20;5.80;;;;;;;21.63;29.31;100213.00;5051134;28;20200;-64
2022/04/14 07:07:26;;;;;;;6.43;4.43;;;;;;;22.03;30.91;100210.00;5053807;28;20193;-65
2022/04/14 07:09:52;;;;;;;11.87;5.53;;;;;;;22.48;28.20;100205.94;5055228;28;20221;-66
2022/04/14 07:12:19;;;;;;;5.23;4.83;;;;;;;22.84;26.73;100216.03;5054927;28;20640;-64
2022/04/14 07:14:46;;;;;;;6.80;4.70;;;;;;;22.39;27.96;100215.56;5055679;28;20228;-65
2022/04/14 07:17:13;;;;;;;5.50;5.10;;;;;;;22.07;28.36;100209.25;5054653;28;20209;-66
2022/04/14 07:19:39;;;;;;;9.37;5.17;;;;;;;21.76;28.28;100203.72;5054778;28;20662;-65
2022/04/14 07:22:06;;;;;;;8.67;4.70;;;;;;;21.24;29.60;100205.94;5055311;28;20200;-65
2022/04/14 07:24:34;;;;;;;8.97;5.07;;;;;;;21.79;30.51;100201.34;5055331;28;20201;-69
2022/04/14 07:27:01;;;;;;;5.90;5.07;;;;;;;21.82;28.47;100206.25;5044175;28;20572;-67
2022/04/14 07:29:27;;;;;;;11.67;5.70;;;;;;;21.66;28.59;100206.25;5034825;28;20282;-66
2022/04/14 07:31:54;;;;;;;200.47;16.00;;;;;;;21.89;29.26;100204.16;5035140;28;20201;-66
2022/04/14 07:34:21;;;;;;;9.80;5.10;;;;;;;22.09;28.13;100209.81;5035074;28;20228;-66
2022/04/14 07:36:47;;;;;;;12.23;5.20;;;;;;;21.70;28.93;100207.38;5034928;28;20197;-65
2022/04/14 07:39:14;;;;;;;8.63;4.93;;;;;;;22.07;27.82;100201.13;5035591;28;20617;-67
2022/04/14 07:41:42;;;;;;;5.87;5.40;;;;;;;22.47;27.30;100198.91;5050553;28;20192;-64
2022/04/14 07:44:09;;;;;;;5.20;4.70;;;;;;;22.85;27.71;100189.75;5054624;28;20580;-64
2022/04/14 07:46:38;;;;;;;8.87;5.40;;;;;;;22.60;27.47;100190.34;5055309;28;20189;-65
2022/04/14 07:49:05;;;;;;;6.43;5.07;;;;;;;22.16;27.63;100196.91;5054527;28;20192;-64
2022/04/14 07:51:32;;;;;;;17.17;5.50;;;;;;;21.96;27.82;100204.78;5054294;28;20197;-65
2022/04/14 07:53:58;;;;;;;7.20;4.73;;;;;;;21.55;28.22;100193.69;5054380;28;20254;-66
2022/04/14 07:56:25;;;;;;;10.93;4.83;;;;;;;21.79;30.10;100190.50;5054396;28;20290;-65
2022/04/14 07:58:53;;;;;;;7.57;5.73;;;;;;;21.62;28.74;100194.31;5054075;28;20262;-66
2022/04/14 08:01:20;;;;;;;6.00;5.47;;;;;;;21.81;28.88;100192.97;5053930;28;20192;-65
2022/04/14 08:03:47;;;;;;;8.57;5.47;;;;;;;21.62;28.81;100194.31;5054076;28;20678;-66
2022/04/14 08:06:14;;;;;;;9.40;5.30;;;;;;;21.39;30.69;100189.94;5054507;28;20250;-65
2022/04/14 08:08:41;;;;;;;6.47;5.10;;;;;;;21.67;28.64;100191.66;5054369;28;20212;-65
2022/04/14 08:11:10;;;;;;;10.57;6.00;;;;;;;22.09;27.97;100185.44;5054175;28;20196;-65
2022/04/14 08:13:38;;;;;;;6.60;5.60;;;;;;;21.80;28.08;100191.34;5035511;28;20648;-64
2022/04/14 08:16:07;;;;;;;7.93;5.63;;;;;;;21.93;28.05;100180.94;5042030;28;20224;-66
2022/04/14 08:18:37;;;;;;;8.27;5.13;;;;;;;21.99;28.00;100198.03;5053837;28;20192;-64
2022/04/14 08:21:04;;;;;;;6.70;4.87;;;;;;;21.91;27.66;100188.50;5053784;28;20200;-65
2022/04/14 08:23:32;;;;;;;5.50;5.00;;;;;;;22.23;27.44;100194.81;5053997;28;20193;-65
2022/04/14 08:26:01;;;;;;;7.80;4.93;;;;;;;22.59;27.76;100186.00;5054084;28;20200;-64
2022/04/14 08:28:27;;;;;;;6.87;5.27;;;;;;;23.22;27.15;100187.88;5054204;28;20666;-65
2022/04/14 08:30:54;;;;;;;9.00;4.50;;;;;;;23.77;26.25;100183.56;5054076;28;20201;-66
2022/04/14 08:33:24;;;;;;;12.07;4.80;;;;;;;23.58;24.34;100187.84;5054343;28;20194;-65
2022/04/14 08:35:53;;;;;;;6.13;4.30;;;;;;;23.66;25.90;100179.19;5053743;28;20257;-66
2022/04/14 08:38:20;;;;;;;5.83;4.47;;;;;;;24.15;24.41;100180.50;5053450;28;20687;-66
2022/04/14 08:40:49;;;;;;;5.30;4.80;;;;;;;24.67;25.28;100178.41;5045565;28;20191;-66
2022/04/14 08:43:18;;;;;;;4.87;4.53;;;;;;;25.17;23.73;100174.88;5033789;28;20633;-65
2022/04/14 08:45:46;;;;;;;7.33;4.37;;;;;;;24.99;22.59;100173.53;5033803;28;20197;-67
2022/04/14 08:48:14;;;;;;;5.40;4.40;;;;;;;25.09;23.88;100164.56;5033532;28;20199;-64
2022/04/14 08:50:43;;;;;;;6.40;5.67;;;;;;;24.91;23.02;100163.19;5033239;28;20196;-64
2022/04/14 08:53:09;;;;;;;8.77;5.20;;;;;;;24.60;23.24;100161.59;5033158;28;20227;-65
2022/04/14 08:55:42;;;;;;;5.50;5.00;;;;;;;24.44;23.76;100151.75;5033444;28;20712;-65
2022/04/14 08:58:13;;;;;;;6.10;5.13;;;;;;;24.47;23.02;100156.63;5034130;28;20189;-65
2022/04/14 09:00:40;;;;;;;4.43;4.13;;;;;;;24.64;24.02;100153.69;5041344;28;20190;-64
2022/04/14 09:03:06;;;;;;;5.97;4.67;;;;;;;24.77;21.79;100151.25;5053486;28;20200;-64
2022/04/14 09:05:33;;;;;;;8.10;5.70;;;;;;;24.25;22.44;100147.91;5052219;28;20806;-67
2022/04/14 09:08:02;;;;;;;13.13;5.23;;;;;;;24.05;25.06;100139.72;5053099;28;20685;-63
2022/04/14 09:10:28;;;;;;;7.27;4.23;;;;;;;24.45;29.19;100133.53;5053320;28;20199;-64
2022/04/14 09:12:55;;;;;;;8.00;4.30;;;;;;;25.02;24.25;100141.47;5044285;28;20274;-64
2022/04/14 09:15:23;;;;;;;6.83;4.30;;;;;;;25.61;24.31;100134.25;5033158;28;20283;-64
2022/04/14 09:17:49;;;;;;;4.87;4.37;;;;;;;25.57;21.39;100131.28;5033008;28;20251;-62
2022/04/14 09:20:34;;;;;;;5.00;3.97;;;;;;;25.78;24.45;100129.25;5032670;28;20193;-62
2022/04/14 09:23:29;;;;;;;4.77;3.97;;;;;;;26.20;21.50;100138.59;5032452;28;20200;-64
2022/04/14 09:26:11;;;;;;;9.67;5.00;;;;;;;25.88;22.66;100123.78;4999714;28;20204;-64
2022/04/14 09:28:39;;;;;;;4.00;3.70;;;;;;;25.61;23.37;100124.19;5052709;28;20600;-63
2022/04/14 09:31:07;;;;;;;6.73;4.70;;;;;;;25.10;20.98;100127.31;5052161;28;20468;-63
2022/04/14 09:33:35;;;;;;;6.10;4.27;;;;;;;25.39;23.47;100118.25;5052503;28;20242;-63
2022/04/14 09:36:08;;;;;;;9.67;3.93;;;;;;;25.51;23.86;100115.25;5052790;28;20231;-64
2022/04/14 09:38:55;;;;;;;5.07;4.67;;;;;;;25.60;21.12;100111.66;5052959;28;20196;-64
2022/04/14 09:41:33;;;;;;;5.47;4.23;;;;;;;25.80;20.70;100117.00;5052342;28;20189;-62
2022/04/14 09:44:03;;;;;;;5.47;4.03;;;;;;;25.26;20.57;100112.56;5052429;28;20192;-62
2022/04/14 09:46:30;;;;;;;7.67;4.40;;;;;;;25.53;22.54;100107.59;5052813;28;20246;-64
2022/04/14 09:49:03;;;;;;;5.07;4.57;;;;;;;25.64;22.95;100101.03;5052204;28;20192;-63
2022/04/14 09:51:30;;;;;;;5.10;4.23;;;;;;;25.62;20.13;100109.47;5052452;28;20261;-60
2022/04/14 09:54:14;;;;;;;4.90;4.40;;;;;;;25.85;21.90;100102.56;5052339;28;20258;-61
2022/04/14 09:56:49;;;;;;;8.53;4.87;;;;;;;25.80;22.39;100092.50;5051851;28;20215;-60
2022/04/14 09:59:18;;;;;;;4.43;3.73;;;;;;;26.05;20.36;100102.47;5051982;28;20200;-63
2022/04/14 10:01:45;;;;;;;6.77;3.97;;;;;;;26.20;24.98;100080.56;5051765;28;20572;-61
2022/04/14 10:04:32;;;;;;;9.83;4.10;;;;;;;26.02;21.35;100083.97;5051334;28;20674;-61
2022/04/14 10:07:03;;;;;;;4.87;3.53;;;;;;;25.38;20.42;100085.88;5051449;28;20283;-60
2022/04/14 10:09:31;;;;;;;11.67;3.77;;;;;;;25.60;19.93;100091.81;5052134;28;20248;-64
2022/04/14 10:11:58;;;;;;;6.27;3.83;;;;;;;25.76;22.30;100082.47;5052341;28;20636;-63
2022/04/14 10:14:25;;;;;;;4.17;3.20;;;;;;;26.07;18.83;100092.91;5041886;28;20233;-65
2022/04/14 10:16:52;;;;;;;4.23;3.63;;;;;;;25.77;18.95;100078.66;5031749;28;20221;-64
2022/04/14 10:19:19;;;;;;;3.73;3.33;;;;;;;25.77;19.15;100089.53;5031839;28;20189;-65
2022/04/14 10:21:47;;;;;;;3.90;2.67;;;;;;;25.71;18.18;100088.75;5014280;28;20571;-65
2022/04/14 10:24:15;;;;;;;3.33;3.00;;;;;;;25.67;18.30;100084.94;5032206;28;20192;-65
2022/04/14 10:26:44;;;;;;;3.27;3.07;;;;;;;25.85;18.39;100078.06;5040061;28;20201;-64
2022/04/14 10:29:12;;;;;;;5.90;2.97;;;;;;;25.98;19.05;100074.72;5051669;28;20232;-66
2022/04/14 10:31:39;;;;;;;3.60;3.20;;;;;;;26.02;18.62;100075.78;5051556;28;20287;-66
2022/04/14 10:34:07;;;;;;;5.50;3.60;;;;;;;26.00;18.80;100072.56;5051240;28;20200;-66
2022/04/14 10:36:38;;;;;;;4.67;3.97;;;;;;;25.19;20.69;100066.63;5052144;28;20308;-63
2022/04/14 10:39:06;;;;;;;6.70;3.47;;;;;;;25.17;21.34;100065.25;5052386;28;20189;-63
2022/04/14 10:41:36;;;;;;;3.37;2.83;;;;;;;25.10;24.14;100064.75;5037176;28;20194;-64
2022/04/14 10:44:05;;;;;;;3.77;3.47;;;;;;;25.29;22.28;100060.34;5032787;28;20197;-64
2022/04/14 10:46:34;;;;;;;5.90;4.27;;;;;;;25.36;20.81;100060.88;5031797;28;20638;-63
2022/04/14 10:49:14;;;;;;;5.77;3.53;;;;;;;25.46;21.58;100061.66;5031448;28;20289;-64
2022/04/14 10:51:41;;;;;;;3.87;3.57;;;;;;;25.50;21.63;100051.00;5032265;28;20200;-64
2022/04/14 10:54:09;;;;;;;4.60;3.90;;;;;;;24.98;24.08;100047.94;5031533;28;20263;-64
2022/04/14 10:56:50;;;;;;;4.63;4.07;;;;;;;24.89;20.83;100058.56;5032233;28;20323;-64
2022/04/14 10:59:21;;;;;;;3.90;3.63;;;;;;;24.96;21.66;100046.28;5031711;28;20196;-63
2022/04/14 11:02:02;;;;;;;5.83;4.13;;;;;;;25.19;20.97;100038.63;5048376;28;20180;-62
2022/04/14 11:04:31;;;;;;;5.73;4.23;;;;;;;24.23;21.03;100046.91;5051421;28;20181;-63
2022/04/14 11:07:01;;;;;;;9.90;3.77;;;;;;;24.48;23.81;100043.38;5051514;28;20200;-63
2022/04/14 11:09:54;;;;;;;6.63;3.47;;;;;;;24.68;21.36;100044.22;5050893;28;20727;-62
2022/04/14 11:12:23;;;;;;;3.53;3.20;;;;;;;24.95;19.37;100041.16;5051122;28;20183;-63
2022/04/14 11:14:56;;;;;;;5.47;3.37;;;;;;;24.99;19.92;100036.75;5039507;28;20339;-66
2022/04/14 11:17:53;;;;;;;6.43;3.80;;;;;;;25.02;21.39;100032.72;5029716;28;20690;-62
2022/04/14 11:20:22;;;;;;;5.17;3.37;;;;;;;25.12;19.02;100038.91;5031167;28;20756;-64
2022/04/14 11:23:05;;;;;;;3.60;3.23;;;;;;;25.19;20.75;100033.97;5031034;28;20197;-63
2022/04/14 11:25:46;;;;;;;3.67;3.37;;;;;;;24.70;18.10;100025.72;5031487;28;20577;-64
2022/04/14 11:28:18;;;;;;;4.43;3.10;;;;;;;24.24;20.06;100017.84;5030910;28;20222;-63
2022/04/14 11:30:46;;;;;;;4.10;3.20;;;;;;;24.23;19.64;100022.47;5031182;28;20206;-64